Time;durP1;ratioP1;P1;durP2;ratioP2;P2;SDS_P1;SDS_P2;PMS_P1;PMS_P2;Temp;Humidity;BMP_temperature;BMP_pressure;BME280_temperature;BME280_humidity;BME280_pressure;Samples;Min_cycle;Max_cycle;Signal;HPM_P1;HPM_P2
2021/01/20 00:04:19;;;;;;;1.50;1.40;;;;;;;4.97;68.02;99243.00;10182063;29;20048;-68
2021/01/20 00:09:20;;;;;;;1.20;1.10;;;;;;;4.95;67.97;99240.41;10180120;29;20074;-67
2021/01/20 00:14:21;;;;;;;1.55;1.40;;;;;;;4.99;67.53;99249.84;10181773;29;20498;-67
2021/01/20 00:19:23;;;;;;;1.27;1.17;;;;;;;4.91;67.99;99243.97;10180344;29;20491;-67
2021/01/20 00:24:24;;;;;;;1.13;1.02;;;;;;;4.79;68.28;99228.63;10180167;29;20473;-66
2021/01/20 00:29:25;;;;;;;1.10;1.00;;;;;;;4.59;68.47;99235.97;10178390;29;20052;-68
2021/01/20 00:34:27;;;;;;;1.30;1.17;;;;;;;4.27;69.21;99245.25;10180096;29;20051;-67
2021/01/20 00:39:28;;;;;;;1.52;0.98;;;;;;;4.18;69.65;99243.69;10180602;29;20077;-66
2021/01/20 00:44:29;;;;;;;1.10;1.00;;;;;;;3.87;70.10;99248.59;10179331;29;20048;-67
2021/01/20 00:49:30;;;;;;;1.13;1.02;;;;;;;3.68;70.61;99240.25;10178808;29;20044;-66
2021/01/20 00:54:31;;;;;;;2.75;1.30;;;;;;;3.49;70.82;99244.00;10178120;29;20156;-68
2021/01/20 00:59:33;;;;;;;1.42;1.30;;;;;;;3.45;71.17;99243.22;10178101;29;20510;-69
2021/01/20 01:04:34;;;;;;;1.52;1.42;;;;;;;3.44;71.71;99240.63;10178478;29;20047;-67
2021/01/20 01:09:36;;;;;;;2.22;2.00;;;;;;;3.34;71.70;99249.44;10177871;29;20050;-67
2021/01/20 01:14:54;;;;;;;2.15;2.05;;;;;;;3.05;71.82;99245.53;10178602;29;20503;-67
2021/01/20 01:20:04;;;;;;;1.77;1.63;;;;;;;3.09;71.67;99242.00;10178855;29;20090;-68
2021/01/20 01:25:06;;;;;;;2.33;1.70;;;;;;;3.07;72.06;99236.00;10180881;29;20059;-66
2021/01/20 01:30:11;;;;;;;1.60;1.50;;;;;;;3.12;70.96;99243.72;10178410;29;20396;-68
2021/01/20 01:35:15;;;;;;;1.90;1.80;;;;;;;3.03;71.47;99244.69;10178625;29;20048;-68
2021/01/20 01:40:26;;;;;;;1.98;1.80;;;;;;;2.68;72.07;99252.94;10176991;29;20044;-67
2021/01/20 01:45:46;;;;;;;2.40;2.20;;;;;;;2.57;72.75;99249.59;10179497;29;20060;-67
2021/01/20 01:50:48;;;;;;;2.10;2.00;;;;;;;2.35;72.95;99255.06;10178163;29;20045;-66
2021/01/20 01:55:50;;;;;;;3.25;3.00;;;;;;;2.39;73.83;99259.34;10178226;29;20044;-67
2021/01/20 02:01:06;;;;;;;2.70;2.50;;;;;;;2.23;73.38;99240.50;10178268;29;20052;-67
2021/01/20 02:06:22;;;;;;;;;;;;;;;2.22;73.21;99237.94;10178306;29;20048;-66
2021/01/20 02:12:11;;;;;;;2.95;2.75;;;;;;;1.97;73.97;99239.91;10177811;29;19971;-70
2021/01/20 02:17:19;;;;;;;3.25;3.03;;;;;;;1.91;74.10;99242.56;10180166;29;20122;-67
2021/01/20 02:22:27;;;;;;;3.45;3.25;;;;;;;1.96;74.68;99246.81;10178761;29;20511;-67
2021/01/20 02:28:24;;;;;;;4.13;3.83;;;;;;;1.95;74.79;99244.25;10179723;29;20040;-67
2021/01/20 02:33:46;;;;;;;4.22;2.22;;;;;;;2.63;73.26;99241.78;10183956;29;20060;-66
2021/01/20 02:38:56;;;;;;;2.35;2.05;;;;;;;2.87;72.14;99236.25;10186232;29;20056;-67
2021/01/20 02:44:00;;;;;;;1.90;1.30;;;;;;;2.87;71.53;99218.06;10185950;29;20067;-67
2021/01/20 02:49:23;;;;;;;1.33;0.70;;;;;;;3.68;67.47;99216.00;10187809;29;20127;-66
2021/01/20 02:54:26;;;;;;;1.23;0.50;;;;;;;4.18;65.11;99209.03;10186856;29;20192;-67
2021/01/20 02:59:47;;;;;;;1.48;0.60;;;;;;;4.07;64.93;99204.00;10188044;29;20119;-67
2021/01/20 03:05:07;;;;;;;2.30;0.80;;;;;;;3.91;65.26;99198.25;10185726;29;20590;-67
2021/01/20 03:10:10;;;;;;;1.35;0.50;;;;;;;4.21;63.61;99201.16;10186110;29;20052;-66
2021/01/20 03:15:26;;;;;;;0.60;0.60;;;;;;;4.44;62.24;99200.72;10185403;29;20055;-68
2021/01/20 03:20:27;;;;;;;1.73;1.20;;;;;;;4.13;63.44;99200.47;10185019;29;20165;-67
2021/01/20 03:25:29;;;;;;;1.75;1.10;;;;;;;3.99;63.63;99204.16;10183052;29;20056;-67
2021/01/20 03:30:30;;;;;;;2.03;0.70;;;;;;;3.87;63.66;99196.59;10184152;29;20052;-68
2021/01/20 03:35:34;;;;;;;1.10;0.70;;;;;;;3.94;63.62;99197.31;10183623;29;20058;-67
2021/01/20 03:40:36;;;;;;;1.52;0.65;;;;;;;3.98;63.42;99179.03;10184402;29;20048;-67
2021/01/20 03:45:37;;;;;;;1.35;0.65;;;;;;;4.20;62.91;99183.81;10183253;29;20063;-67
2021/01/20 03:50:38;;;;;;;0.60;0.50;;;;;;;4.27;62.51;99167.22;10183204;29;20056;-66
2021/01/20 03:55:39;;;;;;;0.88;0.55;;;;;;;4.39;62.18;99160.94;10183329;29;20063;-67
2021/01/20 04:00:40;;;;;;;0.75;0.60;;;;;;;4.52;61.91;99164.97;10182303;29;20067;-67
2021/01/20 04:05:41;;;;;;;0.90;0.50;;;;;;;4.78;61.20;99153.97;10182205;29;20075;-68
2021/01/20 04:10:43;;;;;;;0.80;0.43;;;;;;;4.71;61.48;99158.47;10181713;29;20158;-67
2021/01/20 04:15:44;;;;;;;0.90;0.52;;;;;;;4.84;61.34;99153.84;10180814;29;20048;-67
2021/01/20 04:20:47;;;;;;;1.17;0.47;;;;;;;4.63;61.84;99143.91;10179169;29;20072;-65
2021/01/20 04:25:48;;;;;;;0.63;0.57;;;;;;;4.39;62.91;99147.91;10178228;29;20103;-66
2021/01/20 04:30:49;;;;;;;0.50;0.40;;;;;;;4.29;63.12;99142.03;10177619;29;20095;-65
2021/01/20 04:35:50;;;;;;;1.27;0.60;;;;;;;4.31;63.20;99140.25;10178462;29;20083;-66
2021/01/20 04:40:55;;;;;;;0.95;0.50;;;;;;;4.24;63.32;99141.25;10177949;29;20072;-66
2021/01/20 04:45:56;;;;;;;2.17;0.65;;;;;;;4.38;63.47;99136.63;10179538;29;20044;-66
2021/01/20 04:51:02;;;;;;;1.58;0.68;;;;;;;4.62;62.88;99130.06;10176925;29;20036;-66
2021/01/20 04:56:11;;;;;;;1.20;0.70;;;;;;;4.59;63.25;99130.09;10177066;29;20103;-65
2021/01/20 05:01:13;;;;;;;0.50;0.50;;;;;;;4.88;62.50;99124.25;10176563;29;20574;-66
2021/01/20 05:06:14;;;;;;;0.50;0.50;;;;;;;4.85;62.67;99129.53;10176678;29;20102;-66
2021/01/20 05:11:15;;;;;;;0.63;0.40;;;;;;;4.83;62.57;99127.88;10176421;29;20494;-66
2021/01/20 05:16:26;;;;;;;1.13;0.68;;;;;;;5.30;61.19;99117.13;10177370;29;20051;-66
2021/01/20 05:21:28;;;;;;;1.17;0.50;;;;;;;5.42;60.82;99109.91;10176962;29;20084;-66
2021/01/20 05:26:42;;;;;;;0.38;0.38;;;;;;;5.49;60.09;99075.84;10176181;29;20072;-66
2021/01/20 05:31:44;;;;;;;1.05;0.50;;;;;;;5.78;59.43;99076.78;10176469;29;20055;-66
2021/01/20 05:37:01;;;;;;;1.58;0.50;;;;;;;5.78;58.91;99077.66;10176110;29;20469;-66
2021/01/20 05:42:04;;;;;;;0.85;0.43;;;;;;;5.84;58.73;99076.63;10175537;29;20055;-66
2021/01/20 05:47:10;;;;;;;1.85;0.50;;;;;;;5.92;58.04;99073.84;10176413;29;20052;-65
2021/01/20 05:52:13;;;;;;;0.70;0.40;;;;;;;5.99;58.17;99068.41;10175972;29;20107;-66
2021/01/20 05:57:19;;;;;;;0.47;0.47;;;;;;;6.09;57.30;99063.78;10160510;29;20088;-66
2021/01/20 06:02:21;;;;;;;0.70;0.60;;;;;;;6.05;57.36;99060.38;10175798;29;20076;-65
2021/01/20 06:07:23;;;;;;;0.93;0.50;;;;;;;6.07;57.04;99056.00;10181636;29;20100;-67
2021/01/20 06:12:25;;;;;;;1.33;0.60;;;;;;;6.10;56.85;99056.78;10186733;29;20056;-67
2021/01/20 06:17:34;;;;;;;0.52;0.52;;;;;;;6.20;56.23;99047.81;10184466;29;20415;-66
2021/01/20 06:22:51;;;;;;;0.82;0.60;;;;;;;6.02;56.77;99039.63;10182261;29;20048;-66
2021/01/20 06:28:11;;;;;;;1.67;0.60;;;;;;;6.26;55.44;99052.84;10183910;29;20064;-66
2021/01/20 06:33:16;;;;;;;0.85;0.50;;;;;;;6.14;56.30;99048.84;10184933;29;20080;-66
2021/01/20 06:38:23;;;;;;;1.40;0.50;;;;;;;6.16;55.85;99056.63;10184979;29;20040;-65
2021/01/20 06:43:32;;;;;;;;;;;;;;;6.12;55.94;99061.09;10186686;29;20048;-64
2021/01/20 06:48:54;;;;;;;0.88;0.70;;;;;;;6.09;56.09;99057.69;10183516;29;19923;-68
2021/01/20 06:54:04;;;;;;;0.93;0.50;;;;;;;6.36;55.50;99056.88;10178811;29;20055;-67
2021/01/20 06:59:15;;;;;;;0.70;0.47;;;;;;;6.31;55.65;99074.44;10183904;29;20040;-66
2021/01/20 07:04:37;;;;;;;0.75;0.55;;;;;;;6.17;56.13;99076.59;10184542;29;20443;-67
2021/01/20 07:10:05;;;;;;;0.60;0.50;;;;;;;6.29;55.52;99084.94;10182969;29;20040;-66
2021/01/20 07:15:10;;;;;;;0.52;0.50;;;;;;;6.35;54.92;99083.03;10184811;29;20156;-65
2021/01/20 07:20:12;;;;;;;0.32;0.32;;;;;;;6.49;54.42;99086.06;10183184;29;20064;-66
2021/01/20 07:25:14;;;;;;;0.60;0.60;;;;;;;6.44;55.03;99098.41;10182207;29;20051;-67
2021/01/20 07:30:16;;;;;;;1.23;0.88;;;;;;;6.54;53.71;99089.41;10182303;29;20060;-67
2021/01/20 07:35:23;;;;;;;1.05;0.75;;;;;;;6.81;53.02;99093.75;10180897;29;20099;-66
2021/01/20 07:40:29;;;;;;;0.85;0.60;;;;;;;6.72;54.00;99085.38;10180501;29;20040;-67
2021/01/20 07:45:32;;;;;;;1.48;0.52;;;;;;;6.48;54.64;99102.66;10181075;29;20044;-67
2021/01/20 07:50:37;;;;;;;0.52;0.52;;;;;;;6.79;52.87;99111.25;10181538;29;20048;-67
2021/01/20 07:55:38;;;;;;;0.88;0.80;;;;;;;7.16;51.39;99097.00;10179942;29;20162;-67
2021/01/20 08:00:47;;;;;;;0.75;0.68;;;;;;;7.36;51.65;99096.34;10180288;29;20048;-67
2021/01/20 08:05:48;;;;;;;1.02;0.80;;;;;;;7.46;51.50;99095.13;10180896;29;20051;-66
2021/01/20 08:10:54;;;;;;;0.85;0.60;;;;;;;7.28;51.58;99094.00;10179431;29;20060;-67
2021/01/20 08:15:56;;;;;;;1.25;0.68;;;;;;;7.43;52.26;99095.22;10179360;29;20052;-67
2021/01/20 08:20:57;;;;;;;1.30;0.88;;;;;;;7.44;51.39;99098.72;10178751;29;20044;-66
2021/01/20 08:26:06;;;;;;;1.75;0.73;;;;;;;7.78;49.88;99099.25;10180454;29;20056;-67
2021/01/20 08:31:34;;;;;;;0.93;0.70;;;;;;;7.79;50.71;99113.16;10180485;29;20414;-66
2021/01/20 08:36:36;;;;;;;0.82;0.77;;;;;;;7.65;51.65;99116.28;10179859;29;20140;-67
2021/01/20 08:41:37;;;;;;;2.13;0.88;;;;;;;7.52;51.36;99128.91;10180166;29;20040;-66
2021/01/20 08:46:38;;;;;;;1.17;0.90;;;;;;;7.94;49.53;99115.25;10179638;29;20570;-66
2021/01/20 08:51:40;;;;;;;2.25;0.80;;;;;;;8.11;49.80;99119.03;10177172;29;20040;-68
2021/01/20 08:56:41;;;;;;;1.10;0.90;;;;;;;8.14;49.33;99119.75;10177595;29;20044;-68
2021/01/20 09:01:44;;;;;;;1.10;0.88;;;;;;;8.16;49.06;99110.09;10178461;29;20485;-66
2021/01/20 09:06:45;;;;;;;1.20;1.00;;;;;;;7.97;49.62;99120.41;10176570;29;20056;-67
2021/01/20 09:11:46;;;;;;;1.50;0.80;;;;;;;7.97;51.00;99127.38;10175995;29;20051;-66
2021/01/20 09:16:48;;;;;;;1.40;1.10;;;;;;;8.02;51.05;99139.41;10176453;29;20047;-68
2021/01/20 09:21:49;;;;;;;3.00;2.15;;;;;;;8.24;50.58;99130.78;10192832;23;20099;-65
2021/01/20 09:26:51;;;;;;;2.28;1.10;;;;;;;8.09;51.85;99133.00;10178097;29;20044;-63
2021/01/20 09:31:52;;;;;;;1.75;1.00;;;;;;;8.16;51.23;99133.66;10176810;29;20068;-64
2021/01/20 09:36:53;;;;;;;1.95;1.08;;;;;;;7.93;52.79;99126.66;10176461;29;20040;-64
2021/01/20 09:41:54;;;;;;;4.07;1.00;;;;;;;7.80;53.36;99118.38;10176082;29;20056;-64
2021/01/20 09:46:57;;;;;;;1.85;0.93;;;;;;;7.89;53.88;99113.72;10175780;29;20474;-64
2021/01/20 09:51:59;;;;;;;2.17;1.10;;;;;;;8.11;53.50;99114.66;10175903;29;20059;-64
2021/01/20 09:57:03;;;;;;;1.00;0.80;;;;;;;8.29;52.04;99105.28;10175756;29;20044;-64
2021/01/20 10:02:05;;;;;;;0.50;0.50;;;;;;;8.52;51.43;99107.06;10175411;29;20537;-65
2021/01/20 10:07:07;;;;;;;1.73;0.70;;;;;;;8.71;51.03;99107.19;10176960;29;20060;-64
2021/01/20 10:12:11;;;;;;;0.70;0.60;;;;;;;8.86;50.23;99103.13;10175777;29;20055;-64
2021/01/20 10:17:13;;;;;;;1.27;0.70;;;;;;;9.04;50.23;99098.00;10175401;29;20360;-64
2021/01/20 10:22:14;;;;;;;1.70;1.00;;;;;;;9.22;50.26;99100.78;10173604;29;20052;-64
2021/01/20 10:27:16;;;;;;;5.47;2.55;;;;;;;9.11;50.46;99095.97;10174565;29;20069;-64
2021/01/20 10:32:17;;;;;;;7.20;5.55;;;;;;;9.24;49.44;99091.06;10174391;29;20048;-64
2021/01/20 10:37:18;;;;;;;8.35;6.15;;;;;;;9.04;50.34;99086.66;10174308;29;20510;-63
2021/01/20 10:42:20;;;;;;;4.70;3.25;;;;;;;9.20;50.10;99084.25;10174091;29;20414;-65
2021/01/20 10:47:21;;;;;;;3.25;1.35;;;;;;;9.31;48.67;99076.81;10173923;29;20056;-65
2021/01/20 10:52:22;;;;;;;1.63;1.30;;;;;;;9.39;48.68;99079.97;10173957;29;20056;-65
2021/01/20 10:57:23;;;;;;;1.42;1.02;;;;;;;9.71;47.16;99072.47;10181788;29;20076;-65
2021/01/20 11:02:24;;;;;;;1.00;0.90;;;;;;;10.10;45.11;99062.84;10180666;29;20502;-64
2021/01/20 11:07:29;;;;;;;0.63;0.45;;;;;;;10.05;44.66;99054.31;10181219;29;20388;-66
2021/01/20 11:12:30;;;;;;;1.20;0.70;;;;;;;10.12;46.26;99039.13;10180616;29;20390;-67
2021/01/20 11:17:31;;;;;;;1.77;0.68;;;;;;;10.50;44.54;99036.53;10179526;29;20542;-64
2021/01/20 11:22:33;;;;;;;1.00;0.80;;;;;;;10.36;43.84;99047.69;10180440;29;20455;-64
2021/01/20 11:27:34;;;;;;;4.05;1.88;;;;;;;10.83;44.71;99047.19;10180082;29;20051;-65
2021/01/20 11:32:36;;;;;;;5.22;3.30;;;;;;;11.35;43.14;99034.94;10180012;29;20418;-64
2021/01/20 11:37:37;;;;;;;4.10;3.13;;;;;;;11.49;41.34;99034.25;10178640;29;20044;-63
2021/01/20 11:42:38;;;;;;;3.88;2.10;;;;;;;10.89;43.55;99039.03;10179712;29;20079;-64
2021/01/20 11:47:40;;;;;;;2.75;1.92;;;;;;;10.79;43.13;99030.72;10179459;29;20059;-65
2021/01/20 11:52:41;;;;;;;5.35;3.83;;;;;;;11.02;41.73;99039.25;10179121;29;20115;-64
2021/01/20 11:57:43;;;;;;;6.80;5.57;;;;;;;10.76;42.01;99036.16;10178946;29;20055;-65
2021/01/20 12:02:44;;;;;;;7.63;6.22;;;;;;;10.32;43.75;99035.63;10180032;29;20040;-64
2021/01/20 12:07:46;;;;;;;7.88;5.88;;;;;;;10.22;42.48;99034.28;10178866;29;20040;-64
2021/01/20 12:12:47;;;;;;;7.30;6.35;;;;;;;9.90;42.86;99020.03;10178121;29;20047;-65
2021/01/20 12:17:48;;;;;;;7.25;5.13;;;;;;;9.88;43.04;99016.63;10176147;29;20142;-65
2021/01/20 12:22:50;;;;;;;6.53;5.38;;;;;;;9.84;43.23;99013.28;10176739;29;20048;-64
2021/01/20 12:27:51;;;;;;;5.90;3.47;;;;;;;9.92;42.71;99012.94;10177572;29;20095;-64
2021/01/20 12:32:52;;;;;;;4.35;3.33;;;;;;;9.72;43.57;99017.28;10177557;29;20467;-64
2021/01/20 12:37:53;;;;;;;6.97;2.42;;;;;;;9.64;44.11;99014.16;10175486;29;20040;-64
2021/01/20 12:42:54;;;;;;;2.45;1.65;;;;;;;9.60;44.28;99007.34;10176743;29;20056;-64
2021/01/20 12:47:56;;;;;;;2.63;1.30;;;;;;;9.57;44.03;98994.38;10177098;29;20051;-64
2021/01/20 12:52:59;;;;;;;1.25;0.95;;;;;;;9.60;44.96;98987.19;10176521;29;20052;-64
2021/01/20 12:58:00;;;;;;;1.15;0.90;;;;;;;9.73;44.87;98986.66;10176269;29;20044;-64
2021/01/20 13:03:01;;;;;;;1.75;0.90;;;;;;;9.72;44.49;98980.56;10176230;29;20052;-64
2021/01/20 13:08:03;;;;;;;0.80;0.70;;;;;;;9.97;43.91;98982.94;10176119;29;20096;-64
2021/01/20 13:13:04;;;;;;;0.90;0.77;;;;;;;9.98;44.50;98976.75;10176147;29;20047;-66
2021/01/20 13:18:06;;;;;;;1.20;0.80;;;;;;;9.83;46.24;98996.69;10174251;29;20048;-65
2021/01/20 13:23:07;;;;;;;2.15;0.70;;;;;;;9.97;46.29;98993.44;10175494;29;20074;-65
2021/01/20 13:28:09;;;;;;;4.03;2.33;;;;;;;10.05;46.89;98996.56;10174241;29;20097;-65
2021/01/20 13:33:10;;;;;;;2.95;2.00;;;;;;;9.95;48.52;98992.63;10175502;29;20055;-65
2021/01/20 13:38:11;;;;;;;8.32;2.10;;;;;;;9.59;50.29;98989.91;10175671;29;20044;-65
2021/01/20 13:43:13;;;;;;;2.30;1.40;;;;;;;9.35;51.75;98984.81;10174812;29;20051;-65
2021/01/20 13:48:14;;;;;;;3.00;1.98;;;;;;;9.60;50.35;98988.97;10175494;29;20050;-65
2021/01/20 13:53:15;;;;;;;1.30;1.00;;;;;;;10.02;47.58;98985.34;10175079;29;20048;-65
2021/01/20 13:58:17;;;;;;;1.30;0.98;;;;;;;9.99;47.26;98983.69;10174596;29;20048;-64
2021/01/20 14:03:18;;;;;;;1.85;0.93;;;;;;;10.13;45.78;98980.44;10174339;29;20048;-64
2021/01/20 14:08:20;;;;;;;1.83;1.00;;;;;;;9.77;47.24;98985.59;10173861;29;20047;-65
2021/01/20 14:13:21;;;;;;;1.52;1.20;;;;;;;9.62;48.06;98997.66;10174568;29;20056;-65
2021/01/20 14:18:22;;;;;;;1.55;0.90;;;;;;;9.57;48.01;99004.88;10174460;29;20040;-64
2021/01/20 14:23:23;;;;;;;1.27;1.10;;;;;;;9.58;47.52;98999.53;10173512;29;20048;-65
2021/01/20 14:28:25;;;;;;;1.98;0.90;;;;;;;9.44;47.43;98996.69;10176338;29;20463;-65
2021/01/20 14:33:26;;;;;;;1.30;0.93;;;;;;;9.34;48.25;98998.84;10181043;29;20135;-66
2021/01/20 14:38:28;;;;;;;1.42;1.10;;;;;;;9.00;48.78;98999.44;10181139;29;20096;-66
2021/01/20 14:43:29;;;;;;;3.72;1.00;;;;;;;9.16;47.71;98993.53;10181184;29;20048;-65
2021/01/20 14:48:31;;;;;;;2.45;1.45;;;;;;;8.95;48.91;98990.91;10180976;29;20072;-66
2021/01/20 14:53:32;;;;;;;4.00;2.00;;;;;;;8.87;50.51;98997.38;10180958;29;20048;-65
2021/01/20 14:58:33;;;;;;;4.40;2.55;;;;;;;8.85;51.22;98989.56;10179931;29;20094;-64
2021/01/20 15:03:34;;;;;;;2.97;1.80;;;;;;;8.76;51.53;98985.56;10179736;29;20120;-64
2021/01/20 15:08:36;;;;;;;2.25;1.90;;;;;;;8.66;51.99;98980.78;10163099;29;20399;-65
2021/01/20 15:13:37;;;;;;;5.93;2.30;;;;;;;8.37;52.73;98987.16;10180736;29;20103;-65
2021/01/20 15:18:38;;;;;;;2.85;2.15;;;;;;;8.32;53.04;98989.94;10178429;29;20128;-64
2021/01/20 15:23:39;;;;;;;4.28;2.30;;;;;;;8.03;53.79;98986.69;10223610;23;20056;-82
2021/01/20 15:28:41;;;;;;;4.00;2.42;;;;;;;7.81;54.01;98986.63;10203611;29;20048;-81
2021/01/20 15:33:43;;;;;;;4.38;2.70;;;;;;;7.82;54.18;98977.88;10206899;29;20076;-80
2021/01/20 15:38:45;;;;;;;7.75;2.80;;;;;;;7.71;54.76;98984.44;10205731;29;20060;-82
2021/01/20 15:43:46;;;;;;;3.97;2.47;;;;;;;7.64;54.74;98975.94;10205117;29;20052;-82
2021/01/20 15:48:48;;;;;;;2.75;2.28;;;;;;;7.80;53.83;98976.25;10203129;29;20051;-82
2021/01/20 15:53:49;;;;;;;3.78;2.50;;;;;;;7.80;53.53;98968.41;10204247;29;20055;-82
2021/01/20 15:58:50;;;;;;;4.78;3.17;;;;;;;7.82;53.55;98963.94;10206873;29;20040;-81
2021/01/20 16:03:52;;;;;;;3.38;2.40;;;;;;;7.79;52.93;98958.81;10186956;29;20059;-81
2021/01/20 16:08:56;;;;;;;3.95;2.10;;;;;;;7.77;52.32;98955.41;10202828;29;20040;-81
2021/01/20 16:13:57;;;;;;;3.13;2.47;;;;;;;7.53;53.34;98949.34;10201820;29;20090;-83
2021/01/20 16:19:15;;;;;;;3.03;2.28;;;;;;;7.29;54.10;98956.28;10202870;29;20454;-82
2021/01/20 16:24:16;;;;;;;3.63;2.58;;;;;;;6.98;55.01;98959.97;10207567;29;20478;-83
2021/01/20 16:29:18;;;;;;;4.25;2.50;;;;;;;6.82;55.46;98945.75;10201768;29;20052;-80
2021/01/20 16:34:19;;;;;;;5.60;3.13;;;;;;;6.40;56.55;98942.78;10183473;29;20044;-82
2021/01/20 16:39:20;;;;;;;4.45;3.08;;;;;;;6.34;56.82;98951.69;10198374;29;20498;-82
2021/01/20 16:44:22;;;;;;;5.93;2.90;;;;;;;6.45;55.80;98952.19;10196788;29;20052;-81
2021/01/20 16:49:23;;;;;;;3.33;3.03;;;;;;;6.39;55.98;98954.16;10197021;29;20494;-81
2021/01/20 16:54:25;;;;;;;5.68;2.63;;;;;;;6.42;56.09;98946.19;10197156;29;20056;-81
2021/01/20 16:59:26;;;;;;;5.53;2.72;;;;;;;6.72;53.43;98923.44;10195229;29;20070;-81
2021/01/20 17:04:30;;;;;;;2.15;1.90;;;;;;;6.58;54.18;98923.91;10197533;29;20070;-82
2021/01/20 17:09:31;;;;;;;2.53;1.92;;;;;;;6.68;53.17;98919.22;10195571;29;20040;-82
2021/01/20 17:14:32;;;;;;;2.42;1.42;;;;;;;6.77;53.10;98904.13;10196643;29;20501;-82
2021/01/20 17:19:34;;;;;;;3.17;1.40;;;;;;;6.65;53.42;98908.91;10197801;29;20044;-80
2021/01/20 17:24:35;;;;;;;3.78;1.60;;;;;;;6.94;52.44;98900.91;10194583;29;20099;-81
2021/01/20 17:29:37;;;;;;;1.52;1.13;;;;;;;6.80;52.55;98908.38;10198039;29;20068;-81
2021/01/20 17:34:38;;;;;;;2.33;1.20;;;;;;;6.56;53.32;98905.69;10183461;29;20055;-81
2021/01/20 17:39:39;;;;;;;2.17;1.27;;;;;;;6.49;53.79;98916.38;10201809;29;20442;-81
2021/01/20 17:44:40;;;;;;;2.47;1.30;;;;;;;6.35;53.86;98911.63;10205316;29;20074;-82
2021/01/20 17:49:42;;;;;;;3.03;1.58;;;;;;;6.23;54.49;98912.00;10210099;29;20040;-83
2021/01/20 17:54:43;;;;;;;3.80;2.47;;;;;;;6.08;56.08;98908.13;10202388;29;20055;-82
2021/01/20 17:59:44;;;;;;;4.40;2.50;;;;;;;6.04;56.06;98904.78;10197427;29;20048;-81
2021/01/20 18:04:45;;;;;;;3.83;2.40;;;;;;;5.77;56.94;98908.19;10209402;29;20048;-83
2021/01/20 18:09:46;;;;;;;3.83;2.45;;;;;;;5.74;56.91;98897.84;10208255;29;20048;-82
2021/01/20 18:14:48;;;;;;;4.05;2.92;;;;;;;5.77;57.20;98905.59;10209005;29;20056;-82
2021/01/20 18:19:49;;;;;;;4.10;2.47;;;;;;;5.71;57.02;98909.25;10208745;29;20040;-83
2021/01/20 18:24:50;;;;;;;4.40;2.65;;;;;;;5.89;56.83;98904.34;10207571;29;20048;-83
2021/01/20 18:29:51;;;;;;;4.53;2.78;;;;;;;5.65;57.57;98892.91;10210363;29;20051;-83
2021/01/20 18:34:52;;;;;;;3.42;2.60;;;;;;;5.76;57.45;98891.72;10216825;29;20032;-83
2021/01/20 18:39:56;;;;;;;3.30;1.92;;;;;;;5.89;57.40;98880.88;10221184;29;20044;-84
2021/01/20 18:45:12;;;;;;;4.05;2.80;;;;;;;6.03;56.64;98878.75;10221122;29;20048;-84
2021/01/20 18:50:13;;;;;;;4.38;2.90;;;;;;;5.90;56.85;98878.25;10216006;29;20064;-82
2021/01/20 18:55:14;;;;;;;3.85;2.33;;;;;;;5.85;56.87;98877.53;10208114;29;20103;-84
2021/01/20 19:00:16;;;;;;;3.33;2.45;;;;;;;6.00;56.63;98877.06;10214464;29;20040;-83
2021/01/20 19:05:18;;;;;;;3.28;2.25;;;;;;;5.89;56.79;98867.84;10210286;29;20059;-84
2021/01/20 19:10:19;;;;;;;3.50;2.75;;;;;;;6.01;56.50;98864.88;10213276;29;20063;-80
2021/01/20 19:15:20;;;;;;;3.30;2.38;;;;;;;6.18;55.70;98856.50;10206859;29;20048;-84
2021/01/20 19:20:22;;;;;;;3.08;2.33;;;;;;;6.02;56.06;98863.97;10206772;29;20048;-83
2021/01/20 19:25:23;;;;;;;3.10;2.03;;;;;;;6.05;55.79;98872.56;10208752;29;20047;-82
2021/01/20 19:30:26;;;;;;;3.78;2.25;;;;;;;5.86;56.45;98866.19;10213509;29;20055;-83
2021/01/20 19:35:28;;;;;;;2.53;2.15;;;;;;;5.82;57.04;98859.38;10216804;29;20139;-81
2021/01/20 19:40:30;;;;;;;3.40;3.10;;;;;;;5.90;56.58;98853.91;10209321;29;20068;-81
2021/01/20 19:45:31;;;;;;;2.67;2.10;;;;;;;5.62;57.50;98848.69;10212392;29;20056;-83
2021/01/20 19:50:51;;;;;;;4.28;2.30;;;;;;;5.94;56.82;98847.72;10215907;29;20072;-81
2021/01/20 19:55:52;;;;;;;3.10;2.42;;;;;;;6.01;56.21;98837.03;10208872;29;20052;-83
2021/01/20 20:00:55;;;;;;;3.88;2.55;;;;;;;5.88;55.93;98837.44;10194113;29;20052;-82
2021/01/20 20:05:57;;;;;;;3.40;2.25;;;;;;;5.70;56.47;98836.28;10213399;29;20089;-84
2021/01/20 20:10:59;;;;;;;2.35;1.75;;;;;;;5.89;55.41;98834.81;10204719;29;20119;-84
2021/01/20 20:16:00;;;;;;;3.88;2.25;;;;;;;5.85;56.33;98829.75;10204629;29;20048;-82
2021/01/20 20:21:01;;;;;;;3.13;2.30;;;;;;;5.69;56.45;98834.56;10207560;29;20080;-83
2021/01/20 20:26:03;;;;;;;2.67;2.30;;;;;;;5.42;57.14;98831.06;10213881;29;20116;-84
2021/01/20 20:31:04;;;;;;;3.47;2.72;;;;;;;5.56;56.87;98832.34;10202208;29;20040;-82
2021/01/20 20:36:06;;;;;;;3.05;2.50;;;;;;;5.73;56.76;98833.59;10198723;29;20112;-83
2021/01/20 20:41:07;;;;;;;3.00;2.38;;;;;;;5.48;57.30;98836.06;10198234;29;20052;-83
2021/01/20 20:46:08;;;;;;;3.15;2.30;;;;;;;5.17;58.05;98830.91;10200346;29;20048;-82
2021/01/20 20:51:09;;;;;;;3.55;2.38;;;;;;;5.03;58.51;98832.16;10200347;29;20051;-84
2021/01/20 20:56:13;;;;;;;3.20;2.67;;;;;;;5.18;58.46;98820.47;10200932;29;20052;-83
2021/01/20 21:01:15;;;;;;;5.03;4.47;;;;;;;5.27;58.57;98814.16;10203689;29;20056;-83
2021/01/20 21:06:16;;;;;;;5.82;5.32;;;;;;;5.63;57.69;98816.53;10201526;29;20052;-82
2021/01/20 21:11:18;;;;;;;5.78;4.18;;;;;;;5.43;58.33;98804.94;10210091;29;20078;-81
2021/01/20 21:16:20;;;;;;;4.28;3.88;;;;;;;5.22;58.97;98811.69;10212997;29;20116;-82
2021/01/20 21:21:25;;;;;;;3.72;2.83;;;;;;;5.37;58.50;98799.94;10211625;29;20048;-83
2021/01/20 21:26:27;;;;;;;4.78;2.80;;;;;;;5.73;56.66;98790.09;10211160;29;20101;-82
2021/01/20 21:31:28;;;;;;;4.63;3.25;;;;;;;5.88;56.56;98785.28;10190320;29;20529;-83
2021/01/20 21:36:29;;;;;;;5.32;3.72;;;;;;;5.92;56.09;98784.31;10203125;29;20048;-83
2021/01/20 21:41:33;;;;;;;4.53;2.88;;;;;;;5.88;55.90;98778.31;10204886;29;20048;-82
2021/01/20 21:46:34;;;;;;;3.35;3.00;;;;;;;5.80;56.75;98781.19;10203667;29;20052;-82
2021/01/20 21:51:35;;;;;;;4.72;3.40;;;;;;;5.82;56.64;98783.75;10201397;29;20055;-82
2021/01/20 21:56:39;;;;;;;3.90;3.03;;;;;;;5.44;57.31;98783.19;10184097;29;20059;-82
2021/01/20 22:01:41;;;;;;;2.78;2.05;;;;;;;5.77;56.29;98783.88;10198273;29;20044;-81
2021/01/20 22:06:42;;;;;;;4.65;3.42;;;;;;;5.88;55.27;98778.31;10200992;29;20126;-82
2021/01/20 22:11:43;;;;;;;3.80;2.67;;;;;;;5.85;55.57;98780.19;10202624;29;20059;-83
2021/01/20 22:16:44;;;;;;;3.53;2.65;;;;;;;6.15;54.26;98779.19;10200427;29;20052;-83
2021/01/20 22:21:46;;;;;;;3.58;2.65;;;;;;;6.02;54.68;98776.16;10201887;29;20048;-83
2021/01/20 22:26:47;;;;;;;3.42;2.53;;;;;;;5.87;55.15;98778.38;10203331;29;20044;-82
2021/01/20 22:31:54;;;;;;;4.75;3.10;;;;;;;6.18;53.80;98784.31;10203022;29;20071;-83
2021/01/20 22:36:55;;;;;;;4.28;2.88;;;;;;;6.15;54.09;98779.19;10198894;29;20518;-82
2021/01/20 22:41:56;;;;;;;4.13;3.30;;;;;;;6.15;54.26;98773.97;10197331;29;20044;-82
2021/01/20 22:46:57;;;;;;;3.30;2.75;;;;;;;6.16;53.77;98767.00;10197811;29;20052;-83
2021/01/20 22:52:00;;;;;;;3.97;2.78;;;;;;;6.06;54.06;98767.31;10204095;29;20152;-82
2021/01/20 22:57:01;;;;;;;3.33;2.50;;;;;;;5.87;54.76;98760.13;10207130;29;20044;-83
2021/01/20 23:02:03;;;;;;;3.65;2.80;;;;;;;5.97;54.63;98759.78;10206286;29;20044;-82
2021/01/20 23:07:04;;;;;;;3.78;2.70;;;;;;;5.84;54.99;98748.03;10206726;29;20059;-82
2021/01/20 23:12:06;;;;;;;5.57;2.67;;;;;;;6.01;54.27;98737.91;10207311;29;20565;-82
2021/01/20 23:17:07;;;;;;;3.80;2.78;;;;;;;5.73;55.45;98739.72;10203704;29;20047;-83
2021/01/20 23:22:08;;;;;;;4.28;3.35;;;;;;;5.87;55.36;98736.66;10204151;29;20116;-83
2021/01/20 23:27:10;;;;;;;4.50;3.50;;;;;;;5.85;55.39;98723.66;10204117;29;20063;-82
2021/01/20 23:32:24;;;;;;;5.03;3.20;;;;;;;5.72;55.60;98727.59;10200387;29;20351;-83
2021/01/20 23:37:25;;;;;;;4.90;3.58;;;;;;;5.81;55.54;98722.91;10197788;29;20067;-83
2021/01/20 23:42:27;;;;;;;3.92;3.50;;;;;;;5.64;56.00;98729.59;10215661;29;20080;-82
2021/01/20 23:47:28;;;;;;;4.10;3.58;;;;;;;5.83;55.81;98728.06;10215137;29;20056;-83
2021/01/20 23:52:29;;;;;;;4.20;3.75;;;;;;;5.74;56.13;98716.19;10223716;29;20056;-82